Terminal Aerodrome Forecast
Issued by NWS Albany, NY

Home | Current Version | Previous Version | Text Only | Print | Product List | Glossary On
Versions: 1 2 3 4 5 6 7 8 9 10 11 12 13 14
000
FTUS41 KALY 241120
TAFALB
TAF
KALB 241120Z 2412/2512 30004KT P6SM VCSH FEW045 FEW090 OVC180
     FM241500 17006KT P6SM VCSH SCT015 OVC025
     FM242000 18010G16KT P6SM SCT025 BKN050
     FM250300 17009KT P6SM BKN025=

USA.gov is the U.S. government's official web portal to all federal, state and local government web resources and services.